Time;durP1;ratioP1;P1;durP2;ratioP2;P2;SDS_P1;SDS_P2;PMS_P1;PMS_P2;Temp;Humidity;BMP_temperature;BMP_pressure;BME280_temperature;BME280_humidity;BME280_pressure;Samples;Min_cycle;Max_cycle;Signal;HPM_P1;HPM_P2
2022/08/01 00:00:28;;;;;;;8.82;2.58;;;18.10;99.90;;;;;;5071653;28;20039;-52
2022/08/01 00:02:53;;;;;;;7.57;2.60;;;18.10;99.90;;;;;;5071411;28;20029;-49
2022/08/01 00:05:19;;;;;;;7.45;2.72;;;18.10;99.90;;;;;;5071553;28;20021;-50
2022/08/01 00:07:45;;;;;;;5.97;2.80;;;18.00;99.90;;;;;;5071612;28;20719;-55
2022/08/01 00:10:13;;;;;;;11.57;3.15;;;18.00;99.90;;;;;;5071447;28;20095;-52
2022/08/01 00:12:40;;;;;;;7.95;2.88;;;18.00;99.90;;;;;;5071608;28;20028;-52
2022/08/01 00:15:07;;;;;;;7.03;2.83;;;18.00;99.90;;;;;;5070882;28;20012;-46
2022/08/01 00:17:33;;;;;;;8.05;2.30;;;17.90;99.90;;;;;;5057966;28;20040;-47
2022/08/01 00:19:58;;;;;;;15.77;3.30;;;17.90;99.90;;;;;;5071145;28;20035;-46
2022/08/01 00:22:24;;;;;;;9.60;2.75;;;18.00;99.90;;;;;;5071204;28;20024;-49
2022/08/01 00:24:50;;;;;;;7.70;2.85;;;18.00;99.90;;;;;;5071486;28;20031;-50
2022/08/01 00:27:15;;;;;;;6.97;2.42;;;17.90;99.90;;;;;;5071436;28;20036;-49
2022/08/01 00:29:41;;;;;;;7.38;2.50;;;17.90;99.90;;;;;;5071291;28;20406;-45
2022/08/01 00:32:07;;;;;;;8.95;3.10;;;17.90;99.90;;;;;;5070944;28;20486;-53
2022/08/01 00:34:33;;;;;;;8.57;3.10;;;18.00;99.90;;;;;;5071122;28;20024;-46
2022/08/01 00:36:59;;;;;;;11.05;3.45;;;18.00;99.90;;;;;;5071134;28;20127;-51
2022/08/01 00:39:25;;;;;;;9.40;3.20;;;17.90;99.90;;;;;;5070947;28;20087;-46
2022/08/01 00:41:50;;;;;;;11.15;3.33;;;18.00;99.90;;;;;;5070949;28;20174;-46
2022/08/01 00:44:16;;;;;;;8.65;2.78;;;18.00;99.90;;;;;;5070821;28;20035;-47
2022/08/01 00:46:42;;;;;;;8.57;3.38;;;18.00;99.90;;;;;;5070715;28;20067;-48
2022/08/01 00:49:08;;;;;;;8.48;3.00;;;18.00;99.90;;;;;;5070603;28;20443;-48
2022/08/01 00:51:34;;;;;;;7.93;3.45;;;18.10;99.90;;;;;;5070058;28;20020;-48
2022/08/01 00:54:00;;;;;;;9.60;2.90;;;18.10;99.90;;;;;;5070921;28;20035;-53
2022/08/01 00:56:28;;;;;;;9.07;2.80;;;18.10;99.90;;;;;;5070960;28;20013;-46
2022/08/01 00:58:55;;;;;;;7.00;2.63;;;18.10;99.90;;;;;;5070942;28;20021;-49
2022/08/01 01:01:21;;;;;;;10.40;2.92;;;18.10;99.90;;;;;;5070557;28;20100;-49
2022/08/01 01:03:51;;;;;;;9.65;2.60;;;18.10;99.90;;;;;;5062301;28;20028;-49
2022/08/01 01:06:30;;;;;;;8.73;3.03;;;18.10;99.90;;;;;;5070589;28;20434;-48
2022/08/01 01:09:04;;;;;;;5.70;2.83;;;18.10;99.90;;;;;;5070848;28;20040;-54
2022/08/01 01:11:44;;;;;;;6.72;2.90;;;18.10;99.90;;;;;;5070577;28;20163;-51
2022/08/01 01:14:21;;;;;;;10.55;3.25;;;18.00;99.90;;;;;;5070576;28;20032;-48
2022/08/01 01:16:48;;;;;;;6.78;2.90;;;18.00;99.90;;;;;;5056423;28;20098;-49
2022/08/01 01:19:23;;;;;;;7.45;2.85;;;18.00;99.90;;;;;;5070942;28;20050;-52
2022/08/01 01:22:08;;;;;;;8.35;2.92;;;18.00;99.90;;;;;;5070504;28;20032;-47
2022/08/01 01:25:02;;;;;;;8.75;2.83;;;18.00;99.90;;;;;;5070644;28;20036;-48
2022/08/01 01:27:48;;;;;;;6.57;2.53;;;18.00;99.90;;;;;;5054355;28;20028;-52
2022/08/01 01:30:14;;;;;;;6.82;2.70;;;18.00;99.90;;;;;;5070101;28;20036;-51
2022/08/01 01:32:46;;;;;;;8.35;2.78;;;18.00;99.90;;;;;;5070178;28;20032;-53
2022/08/01 01:35:21;;;;;;;8.73;3.40;;;18.00;99.90;;;;;;5070678;28;20028;-49
2022/08/01 01:37:49;;;;;;;7.03;2.40;;;18.00;99.90;;;;;;5070273;28;20480;-46
2022/08/01 01:40:16;;;;;;;7.25;2.83;;;18.00;99.90;;;;;;5070454;28;20410;-46
2022/08/01 01:42:43;;;;;;;6.72;2.70;;;18.00;99.90;;;;;;5070292;28;20476;-46
2022/08/01 01:45:10;;;;;;;7.93;3.00;;;18.00;99.90;;;;;;5070443;28;20029;-51
2022/08/01 01:47:38;;;;;;;7.63;2.70;;;18.00;99.90;;;;;;5070363;28;20078;-50
2022/08/01 01:50:06;;;;;;;7.38;2.70;;;18.10;99.90;;;;;;5070052;28;20544;-51
2022/08/01 01:52:33;;;;;;;7.32;2.90;;;18.10;99.90;;;;;;5070570;28;20086;-48
2022/08/01 01:55:01;;;;;;;7.38;2.22;;;18.20;99.90;;;;;;5070391;28;20032;-49
2022/08/01 01:57:29;;;;;;;7.70;2.55;;;18.20;99.90;;;;;;5070470;28;20419;-45
2022/08/01 01:59:56;;;;;;;6.90;2.38;;;18.20;99.90;;;;;;5069966;28;20079;-50
2022/08/01 02:02:24;;;;;;;6.75;2.63;;;18.10;99.90;;;;;;5070331;28;20422;-53
2022/08/01 02:04:52;;;;;;;7.18;2.83;;;18.10;99.90;;;;;;5073825;28;20114;-48
2022/08/01 02:07:21;;;;;;;7.20;2.78;;;18.10;99.90;;;;;;5072837;28;20032;-46
2022/08/01 02:09:47;;;;;;;6.15;2.97;;;18.10;99.90;;;;;;5073695;28;20016;-46
2022/08/01 02:12:14;;;;;;;6.45;2.55;;;18.10;99.90;;;;;;5073564;28;20025;-48
2022/08/01 02:14:42;;;;;;;6.00;2.60;;;18.00;99.90;;;;;;5073646;28;20029;-51
2022/08/01 02:17:11;;;;;;;7.00;2.78;;;18.00;99.90;;;;;;5059686;28;20020;-54
2022/08/01 02:19:37;;;;;;;8.82;3.05;;;18.00;99.90;;;;;;5073564;28;20033;-56
2022/08/01 02:22:11;;;;;;;8.15;3.03;;;18.00;99.90;;;;;;5073476;28;20120;-48
2022/08/01 02:24:37;;;;;;;8.20;2.90;;;18.00;99.90;;;;;;5073585;28;20495;-49
2022/08/01 02:27:09;;;;;;;8.02;2.97;;;18.00;99.90;;;;;;5073433;28;20035;-50
2022/08/01 02:30:06;;;;;;;9.20;3.03;;;18.00;99.90;;;;;;5073342;28;20017;-47
2022/08/01 02:32:39;;;;;;;7.10;3.22;;;17.90;99.90;;;;;;5057547;28;20119;-53
2022/08/01 02:35:11;;;;;;;8.27;2.53;;;17.90;99.90;;;;;;5072814;28;20024;-48
2022/08/01 02:37:38;;;;;;;4.38;2.60;;;17.90;99.90;;;;;;5073234;28;20038;-47
2022/08/01 02:40:05;;;;;;;5.57;2.72;;;17.90;99.90;;;;;;5073062;28;20016;-52
2022/08/01 02:42:34;;;;;;;7.07;3.00;;;17.90;99.90;;;;;;5073049;28;20032;-53
2022/08/01 02:45:04;;;;;;;5.53;2.85;;;17.80;99.90;;;;;;5073089;28;20497;-47
2022/08/01 02:47:30;;;;;;;;;;;17.80;99.90;;;;;;5073458;28;20037;-49
2022/08/01 02:49:57;;;;;;;7.63;2.65;;;17.80;99.90;;;;;;5072919;28;19912;-48
2022/08/01 02:52:26;;;;;;;8.45;3.35;;;17.80;99.90;;;;;;5073065;28;20060;-53
2022/08/01 02:54:54;;;;;;;;;;;17.80;99.90;;;;;;5073504;28;20107;-50
2022/08/01 02:57:21;;;;;;;7.60;3.20;;;17.80;99.90;;;;;;5072894;28;19919;-50
2022/08/01 02:59:48;;;;;;;6.63;2.83;;;17.80;99.90;;;;;;5072535;28;20040;-50
2022/08/01 03:02:16;;;;;;;5.38;3.22;;;17.80;99.90;;;;;;5072674;28;20116;-54
2022/08/01 03:04:42;;;;;;;6.82;2.85;;;17.80;99.90;;;;;;5072606;28;20059;-51
2022/08/01 03:07:11;;;;;;;6.10;2.97;;;17.80;99.90;;;;;;5072743;28;20017;-56
2022/08/01 03:09:40;;;;;;;5.13;2.60;;;17.80;99.90;;;;;;5072415;28;20434;-49
2022/08/01 03:12:14;;;;;;;5.20;2.58;;;17.90;99.90;;;;;;5072192;28;20028;-47
2022/08/01 03:14:41;;;;;;;7.20;2.78;;;17.90;99.90;;;;;;5071747;28;20471;-46
2022/08/01 03:17:08;;;;;;;6.30;2.75;;;17.90;99.90;;;;;;5058263;28;20052;-47
2022/08/01 03:19:37;;;;;;;5.28;2.35;;;17.90;99.90;;;;;;5072240;28;20032;-48
2022/08/01 03:22:09;;;;;;;5.95;2.55;;;17.90;99.90;;;;;;5072429;28;20159;-45
2022/08/01 03:24:38;;;;;;;6.03;2.72;;;17.90;99.90;;;;;;5072370;28;20070;-50
2022/08/01 03:27:05;;;;;;;6.88;3.10;;;17.90;99.90;;;;;;5072223;28;20491;-47
2022/08/01 03:29:32;;;;;;;5.10;2.92;;;17.90;99.90;;;;;;5072119;28;20073;-50
2022/08/01 03:31:59;;;;;;;4.53;2.55;;;17.90;99.90;;;;;;5071992;28;20074;-48
2022/08/01 03:34:27;;;;;;;5.15;2.42;;;17.90;99.90;;;;;;5072089;28;20064;-48
2022/08/01 03:37:03;;;;;;;4.90;2.50;;;18.00;99.90;;;;;;5072050;28;20112;-50
2022/08/01 03:39:34;;;;;;;6.75;2.78;;;18.00;99.90;;;;;;5064096;28;20040;-47
2022/08/01 03:42:09;;;;;;;6.95;2.65;;;18.00;99.90;;;;;;5069457;28;20025;-47
2022/08/01 03:44:38;;;;;;;5.05;2.85;;;18.00;99.90;;;;;;5071781;28;20043;-51
2022/08/01 03:47:08;;;;;;;7.10;2.67;;;18.00;99.90;;;;;;5071903;28;20115;-47
2022/08/01 03:49:37;;;;;;;;;;;18.10;99.90;;;;;;5057976;28;20028;-51
2022/08/01 03:52:04;;;;;;;;;;;18.10;99.90;;;;;;5072348;28;19923;-49
2022/08/01 03:54:34;;;;;;;5.10;2.50;;;18.10;99.90;;;;;;5071639;28;19911;-48
2022/08/01 03:57:01;;;;;;;8.60;2.90;;;18.10;99.90;;;;;;5062576;28;20029;-49
2022/08/01 03:59:28;;;;;;;3.58;2.28;;;18.10;99.90;;;;;;5067536;28;20388;-48
2022/08/01 04:01:55;;;;;;;3.97;2.50;;;18.10;99.90;;;;;;5071202;28;20047;-48
2022/08/01 04:04:21;;;;;;;4.88;2.40;;;18.10;99.90;;;;;;5071640;28;20471;-53
2022/08/01 04:06:50;;;;;;;4.63;2.75;;;18.10;99.90;;;;;;5071615;28;20017;-48
2022/08/01 04:09:16;;;;;;;;;;;18.10;99.90;;;;;;5071943;28;20032;-47
2022/08/01 04:11:42;;;;;;;3.03;2.05;;;18.10;99.90;;;;;;5071120;28;19915;-46
2022/08/01 04:14:08;;;;;;;5.13;2.28;;;18.10;99.90;;;;;;5061483;28;20025;-50
2022/08/01 04:16:34;;;;;;;4.57;2.30;;;18.10;99.90;;;;;;5067342;28;20029;-46
2022/08/01 04:19:00;;;;;;;5.32;2.45;;;18.10;99.90;;;;;;5071456;28;20486;-49
2022/08/01 04:21:28;;;;;;;5.57;2.28;;;18.00;99.90;;;;;;5071104;28;20036;-45
2022/08/01 04:23:59;;;;;;;4.15;2.15;;;18.10;99.90;;;;;;5071306;28;20040;-48
2022/08/01 04:26:27;;;;;;;4.20;2.20;;;18.20;99.90;;;;;;5070645;28;20032;-50
2022/08/01 04:28:54;;;;;;;4.80;2.40;;;18.20;99.90;;;;;;5071223;28;20020;-47
2022/08/01 04:31:22;;;;;;;4.78;2.33;;;18.20;99.90;;;;;;5070977;28;20028;-48
2022/08/01 04:33:51;;;;;;;3.90;2.38;;;18.20;99.90;;;;;;5070777;28;20052;-45
2022/08/01 04:36:20;;;;;;;5.00;2.20;;;18.20;99.90;;;;;;5071066;28;20024;-46
2022/08/01 04:38:50;;;;;;;5.85;2.30;;;18.20;99.90;;;;;;5070852;28;20499;-49
2022/08/01 04:41:17;;;;;;;5.43;2.72;;;18.10;99.90;;;;;;5070732;28;20063;-46
2022/08/01 04:43:42;;;;;;;5.85;2.42;;;18.10;99.90;;;;;;5070737;28;20036;-51
2022/08/01 04:46:09;;;;;;;4.93;2.53;;;18.10;99.90;;;;;;5070820;28;20020;-50
2022/08/01 04:48:38;;;;;;;3.75;1.92;;;18.20;99.90;;;;;;5057958;28;20090;-46
2022/08/01 04:51:04;;;;;;;6.53;2.35;;;18.20;99.90;;;;;;5069718;28;20115;-56
2022/08/01 04:53:32;;;;;;;5.50;2.60;;;18.20;99.90;;;;;;5071079;28;20029;-47
2022/08/01 04:55:58;;;;;;;4.43;2.00;;;18.20;99.90;;;;;;5070813;28;20042;-48
2022/08/01 04:58:24;;;;;;;5.00;2.40;;;18.20;99.90;;;;;;5070961;28;20020;-47
2022/08/01 05:00:49;;;;;;;5.97;2.25;;;18.30;99.90;;;;;;5070695;28;20126;-47
2022/08/01 05:03:15;;;;;;;5.32;2.50;;;18.30;99.90;;;;;;5070667;28;20040;-50
2022/08/01 05:05:41;;;;;;;6.80;2.42;;;18.30;99.90;;;;;;5070781;28;20027;-51
2022/08/01 05:08:07;;;;;;;5.60;2.33;;;18.40;99.90;;;;;;5070854;28;20036;-47
2022/08/01 05:10:33;;;;;;;7.22;2.20;;;18.30;99.90;;;;;;5070507;28;20108;-46
2022/08/01 05:12:58;;;;;;;4.07;1.90;;;18.50;99.90;;;;;;5070724;28;20032;-46
2022/08/01 05:15:24;;;;;;;4.22;2.13;;;18.50;99.90;;;;;;5070702;28;20024;-50
2022/08/01 05:17:50;;;;;;;4.85;2.05;;;18.60;99.90;;;;;;5070580;28;20081;-52
2022/08/01 05:20:16;;;;;;;5.18;2.10;;;18.60;99.90;;;;;;5070849;28;20384;-46
2022/08/01 05:22:42;;;;;;;3.50;2.00;;;18.70;99.90;;;;;;5070543;28;20032;-46
2022/08/01 05:25:08;;;;;;;4.07;1.90;;;18.70;99.90;;;;;;5070572;28;20032;-48
2022/08/01 05:27:39;;;;;;;4.70;1.83;;;18.70;99.90;;;;;;5070865;28;20067;-49
2022/08/01 05:30:07;;;;;;;4.25;2.20;;;18.80;99.90;;;;;;5070538;28;20035;-50
2022/08/01 05:32:32;;;;;;;3.90;1.85;;;18.90;99.90;;;;;;5069183;28;20051;-45
2022/08/01 05:34:59;;;;;;;6.78;2.78;;;18.90;99.90;;;;;;5070578;28;20103;-49
2022/08/01 05:37:25;;;;;;;4.32;1.92;;;18.90;99.90;;;;;;5072001;28;20025;-45
2022/08/01 05:39:50;;;;;;;6.75;2.28;;;18.90;99.90;;;;;;5073892;28;20032;-52
2022/08/01 05:42:16;;;;;;;4.30;2.40;;;18.80;99.90;;;;;;5074184;28;20044;-54
2022/08/01 05:44:42;;;;;;;6.60;2.95;;;18.80;99.90;;;;;;5074404;28;20016;-51
2022/08/01 05:47:07;;;;;;;4.72;2.95;;;18.80;99.90;;;;;;5073459;28;20047;-46
2022/08/01 05:49:33;;;;;;;6.53;3.28;;;18.70;99.90;;;;;;5061167;28;20023;-49
2022/08/01 05:52:00;;;;;;;7.25;3.70;;;18.70;99.90;;;;;;5074210;28;20094;-49
2022/08/01 05:54:26;;;;;;;9.93;4.00;;;18.60;99.90;;;;;;5074187;28;20028;-50
2022/08/01 05:56:52;;;;;;;6.53;3.53;;;18.60;99.90;;;;;;5074164;28;20033;-47
2022/08/01 05:59:17;;;;;;;5.10;3.03;;;18.60;99.90;;;;;;5074028;28;20399;-47
2022/08/01 06:01:43;;;;;;;8.52;3.55;;;18.60;99.90;;;;;;5074052;28;20024;-47
2022/08/01 06:04:09;;;;;;;4.43;3.05;;;18.60;99.90;;;;;;5073757;28;20087;-48
2022/08/01 06:06:34;;;;;;;4.35;2.70;;;18.60;99.90;;;;;;5074029;28;20020;-49
2022/08/01 06:09:00;;;;;;;8.80;3.17;;;18.70;99.90;;;;;;5073803;28;20020;-48
2022/08/01 06:11:26;;;;;;;5.25;2.85;;;18.80;99.90;;;;;;5073048;28;20027;-52
2022/08/01 06:13:51;;;;;;;5.25;2.60;;;18.90;99.90;;;;;;5074090;28;20032;-49
2022/08/01 06:16:17;;;;;;;3.95;2.58;;;18.90;99.90;;;;;;5073445;28;20475;-56
2022/08/01 06:18:43;;;;;;;7.15;2.95;;;19.00;99.90;;;;;;5073763;28;20013;-53
2022/08/01 06:21:08;;;;;;;6.25;2.50;;;19.10;99.90;;;;;;5073858;28;20075;-48
2022/08/01 06:23:34;;;;;;;3.67;2.13;;;19.10;99.90;;;;;;5073500;28;20024;-48
2022/08/01 06:26:00;;;;;;;3.97;2.30;;;19.10;99.90;;;;;;5073525;28;20024;-45
2022/08/01 06:28:25;;;;;;;5.35;2.40;;;19.20;99.90;;;;;;5073665;28;20021;-50
2022/08/01 06:30:51;;;;;;;3.55;1.92;;;19.20;99.90;;;;;;5070867;28;20618;-45
2022/08/01 06:33:17;;;;;;;3.25;2.10;;;19.10;99.90;;;;;;5068058;28;20052;-50
2022/08/01 06:35:43;;;;;;;5.55;1.90;;;19.10;99.90;;;;;;5073148;28;20021;-51
2022/08/01 06:38:08;;;;;;;5.05;1.85;;;19.10;99.90;;;;;;5073225;28;20033;-51
2022/08/01 06:40:34;;;;;;;3.15;1.73;;;19.10;99.90;;;;;;5068858;28;20025;-49
2022/08/01 06:43:00;;;;;;;4.63;1.80;;;19.20;99.90;;;;;;5068557;28;20036;-50
2022/08/01 06:45:26;;;;;;;3.28;1.67;;;19.20;99.90;;;;;;5070590;28;20071;-52
2022/08/01 06:47:52;;;;;;;2.63;1.67;;;19.30;99.90;;;;;;5063762;28;20079;-48
2022/08/01 06:50:18;;;;;;;5.95;1.80;;;19.50;99.90;;;;;;5064955;28;20028;-49
2022/08/01 06:52:44;;;;;;;3.83;1.92;;;19.60;99.90;;;;;;5063203;28;20025;-46
2022/08/01 06:55:10;;;;;;;3.80;1.90;;;19.80;99.90;;;;;;5072484;28;20450;-47
2022/08/01 06:57:36;;;;;;;1.60;1.33;;;20.00;99.90;;;;;;5071870;28;20028;-46
2022/08/01 07:00:07;;;;;;;4.35;1.40;;;20.10;99.90;;;;;;5070278;28;20045;-47
2022/08/01 07:02:32;;;;;;;3.80;1.60;;;20.00;99.90;;;;;;5066000;28;20033;-46
2022/08/01 07:05:00;;;;;;;3.70;1.45;;;19.90;99.90;;;;;;5062909;28;20029;-48
2022/08/01 07:07:27;;;;;;;5.72;1.60;;;19.80;99.90;;;;;;5062003;28;20020;-50
2022/08/01 07:09:52;;;;;;;2.58;1.40;;;20.00;99.90;;;;;;5065479;28;20059;-50
2022/08/01 07:12:18;;;;;;;2.78;1.35;;;19.90;99.90;;;;;;5070548;28;20075;-46
2022/08/01 07:14:44;;;;;;;3.63;1.55;;;20.00;99.90;;;;;;5067393;28;20031;-52
2022/08/01 07:17:09;;;;;;;4.03;1.73;;;19.90;99.90;;;;;;5069252;28;20020;-55
2022/08/01 07:19:35;;;;;;;2.83;1.58;;;20.00;99.90;;;;;;5071099;28;20505;-48
2022/08/01 07:22:01;;;;;;;4.05;1.50;;;20.20;99.90;;;;;;5066064;28;20400;-52
2022/08/01 07:24:28;;;;;;;3.28;1.23;;;20.30;99.90;;;;;;5071207;28;20047;-49
2022/08/01 07:26:54;;;;;;;2.70;1.25;;;20.50;99.90;;;;;;5068251;28;20032;-46
2022/08/01 07:29:24;;;;;;;3.60;1.10;;;20.40;99.90;;;;;;5068186;28;21527;-50
2022/08/01 07:31:54;;;;;;;5.10;1.25;;;20.70;99.90;;;;;;5064746;28;20507;-48
2022/08/01 07:34:21;;;;;;;2.45;1.33;;;20.80;99.90;;;;;;5069674;28;20368;-53
2022/08/01 07:36:46;;;;;;;4.32;1.17;;;20.70;99.90;;;;;;5066110;28;20498;-48
2022/08/01 07:39:12;;;;;;;4.30;1.50;;;20.70;99.90;;;;;;5067067;28;20032;-51
2022/08/01 07:41:38;;;;;;;2.85;1.38;;;20.80;99.90;;;;;;5068747;28;20091;-49
2022/08/01 07:44:04;;;;;;;4.15;1.73;;;20.60;99.90;;;;;;5063776;28;20102;-47
2022/08/01 07:46:30;;;;;;;3.95;1.30;;;20.40;99.90;;;;;;5071625;28;20379;-46
2022/08/01 07:48:56;;;;;;;2.60;1.30;;;20.30;99.90;;;;;;5061378;28;20028;-52
2022/08/01 07:51:22;;;;;;;2.30;1.48;;;20.50;99.90;;;;;;5069862;28;20024;-51
2022/08/01 07:53:48;;;;;;;3.92;1.77;;;20.50;99.90;;;;;;5065786;28;20035;-48
2022/08/01 07:56:13;;;;;;;3.60;1.20;;;20.70;99.90;;;;;;5059155;28;20387;-46
2022/08/01 07:58:39;;;;;;;5.75;1.40;;;20.80;99.90;;;;;;5071119;28;20025;-50
2022/08/01 08:01:05;;;;;;;2.88;1.40;;;20.60;99.90;;;;;;5066127;28;20020;-50
2022/08/01 08:03:31;;;;;;;3.85;1.40;;;20.70;99.90;;;;;;5065841;28;20036;-51
2022/08/01 08:05:56;;;;;;;4.03;1.80;;;20.70;99.90;;;;;;5067620;28;20133;-52
2022/08/01 08:08:22;;;;;;;4.70;1.60;;;20.50;99.90;;;;;;5065968;28;20386;-51
2022/08/01 08:10:48;;;;;;;3.55;1.40;;;20.50;99.90;;;;;;5070849;28;20480;-47
2022/08/01 08:13:14;;;;;;;5.07;1.52;;;20.40;99.90;;;;;;5066897;28;20111;-45
2022/08/01 08:15:40;;;;;;;5.18;1.60;;;20.40;99.90;;;;;;5061116;28;20040;-54
2022/08/01 08:18:05;;;;;;;3.75;1.60;;;20.40;99.90;;;;;;5051977;28;20485;-53
2022/08/01 08:20:31;;;;;;;2.88;1.50;;;20.40;99.90;;;;;;5051435;28;20013;-51
2022/08/01 08:22:58;;;;;;;4.45;1.80;;;20.40;99.90;;;;;;5056968;28;20055;-48
2022/08/01 08:25:25;;;;;;;4.55;1.80;;;20.40;99.90;;;;;;5056430;28;20074;-45
2022/08/01 08:27:51;;;;;;;3.47;1.50;;;20.50;99.90;;;;;;5070600;28;20013;-52
2022/08/01 08:30:17;;;;;;;4.18;1.70;;;20.50;99.90;;;;;;5068645;28;20028;-48
2022/08/01 08:32:43;;;;;;;2.83;1.30;;;20.40;99.90;;;;;;5068299;28;20131;-51
2022/08/01 08:35:09;;;;;;;2.47;1.55;;;20.60;99.90;;;;;;5068610;28;20551;-44
2022/08/01 08:37:36;;;;;;;3.10;1.33;;;20.60;99.90;;;;;;5069359;28;20027;-51
2022/08/01 08:40:04;;;;;;;5.72;1.67;;;20.60;99.90;;;;;;5069181;28;20031;-50
2022/08/01 08:42:30;;;;;;;2.72;1.58;;;20.70;99.90;;;;;;5070187;28;20035;-47
2022/08/01 08:44:55;;;;;;;5.40;2.10;;;20.70;99.90;;;;;;5070070;28;20107;-48
2022/08/01 08:47:22;;;;;;;6.13;1.77;;;20.70;99.90;;;;;;5068322;28;20029;-47
2022/08/01 08:49:50;;;;;;;2.45;1.50;;;20.60;99.90;;;;;;5059342;28;20372;-53
2022/08/01 08:52:19;;;;;;;2.90;1.52;;;20.80;99.90;;;;;;5069988;28;20024;-44
2022/08/01 08:54:45;;;;;;;5.32;1.80;;;20.80;99.90;;;;;;5070905;28;20498;-43
2022/08/01 08:57:13;;;;;;;3.33;1.70;;;21.00;99.90;;;;;;5070815;28;20040;-54
2022/08/01 08:59:39;;;;;;;5.68;2.00;;;21.20;99.90;;;;;;5070729;28;20387;-50
2022/08/01 09:02:09;;;;;;;3.97;1.42;;;21.30;99.90;;;;;;5070373;28;20032;-48
2022/08/01 09:04:35;;;;;;;;;;;21.10;99.90;;;;;;5071234;28;20071;-43
2022/08/01 09:07:03;;;;;;;3.85;1.80;;;21.30;99.90;;;;;;5060102;28;20314;-50
2022/08/01 09:09:29;;;;;;;6.50;1.88;;;21.30;99.90;;;;;;5059732;28;20044;-45
2022/08/01 09:11:55;;;;;;;4.13;1.85;;;21.10;99.90;;;;;;5071333;28;20029;-55
2022/08/01 09:14:25;;;;;;;3.20;1.60;;;21.20;99.90;;;;;;5073078;28;20461;-50
2022/08/01 09:17:07;;;;;;;6.65;1.55;;;21.20;99.90;;;;;;5074817;28;20491;-48
2022/08/01 09:19:39;;;;;;;3.67;1.60;;;21.10;99.80;;;;;;5074576;28;20052;-48
2022/08/01 09:22:08;;;;;;;1.85;1.40;;;21.10;99.90;;;;;;5074964;28;20051;-50
2022/08/01 09:24:34;;;;;;;2.53;1.40;;;20.90;99.90;;;;;;5074496;28;20115;-45
2022/08/01 09:27:02;;;;;;;2.63;1.17;;;21.00;99.90;;;;;;5073666;28;20451;-44
2022/08/01 09:29:33;;;;;;;2.15;1.20;;;21.00;99.90;;;;;;5072733;28;20028;-47
2022/08/01 09:32:06;;;;;;;3.65;1.50;;;21.20;99.30;;;;;;5072204;28;20017;-49
2022/08/01 09:34:32;;;;;;;4.47;1.30;;;21.20;99.50;;;;;;5072695;28;20036;-51
2022/08/01 09:37:01;;;;;;;4.20;1.60;;;21.40;99.20;;;;;;5072607;28;20203;-46
2022/08/01 09:39:37;;;;;;;2.08;1.10;;;21.60;99.50;;;;;;5072164;28;20526;-53
2022/08/01 09:42:22;;;;;;;1.90;1.20;;;21.80;98.80;;;;;;5072947;28;20037;-48
2022/08/01 09:44:49;;;;;;;3.42;1.77;;;21.80;98.20;;;;;;5074439;28;20043;-52
2022/08/01 09:47:16;;;;;;;3.42;1.50;;;22.00;97.90;;;;;;5069427;28;20137;-44
2022/08/01 09:49:43;;;;;;;3.28;1.63;;;22.00;98.20;;;;;;5071627;28;20024;-52
2022/08/01 09:52:15;;;;;;;2.55;1.55;;;21.90;98.00;;;;;;5073070;28;20090;-43
2022/08/01 09:54:43;;;;;;;3.03;1.50;;;21.80;97.90;;;;;;5069419;28;20100;-46
2022/08/01 09:57:13;;;;;;;3.33;1.65;;;21.70;98.10;;;;;;5073404;28;20483;-46
2022/08/01 09:59:42;;;;;;;3.38;1.83;;;21.50;98.60;;;;;;5073837;28;20032;-49
2022/08/01 10:02:10;;;;;;;3.13;1.50;;;21.30;98.60;;;;;;5072710;28;20078;-43
2022/08/01 10:04:36;;;;;;;3.47;1.75;;;21.20;99.80;;;;;;5066202;28;20037;-47
2022/08/01 10:07:06;;;;;;;2.85;1.63;;;21.20;99.90;;;;;;5061687;28;20043;-52
2022/08/01 10:09:35;;;;;;;4.30;1.80;;;21.30;99.50;;;;;;5058986;28;20066;-49
2022/08/01 10:12:01;;;;;;;3.13;1.67;;;21.30;99.70;;;;;;5055974;28;20506;-48
2022/08/01 10:14:28;;;;;;;5.18;1.75;;;21.50;98.50;;;;;;5055494;28;20017;-47
2022/08/01 10:16:56;;;;;;;3.53;1.83;;;21.50;98.90;;;;;;5058492;28;20124;-43
2022/08/01 10:19:24;;;;;;;2.77;1.67;;;21.60;99.20;;;;;;5061427;28;20040;-46
2022/08/01 10:21:54;;;;;;;3.00;1.50;;;21.80;98.20;;;;;;5062494;28;20794;-43
2022/08/01 10:24:21;;;;;;;4.85;2.08;;;21.80;98.60;;;;;;5060872;28;20039;-46
2022/08/01 10:27:08;;;;;;;3.17;1.92;;;21.90;98.40;;;;;;5063507;28;20476;-49
2022/08/01 10:29:51;;;;;;;2.85;1.73;;;21.80;98.50;;;;;;5062009;28;20074;-52
2022/08/01 10:32:17;;;;;;;3.97;1.90;;;22.00;97.40;;;;;;5051893;28;20044;-46
2022/08/01 10:34:44;;;;;;;5.35;2.40;;;22.20;97.40;;;;;;5055614;28;20064;-48
2022/08/01 10:37:10;;;;;;;3.30;2.10;;;22.50;97.30;;;;;;5056556;28;20021;-45
2022/08/01 10:39:36;;;;;;;3.58;2.10;;;22.70;96.60;;;;;;5054711;28;20476;-48
2022/08/01 10:42:02;;;;;;;3.67;2.20;;;22.90;97.40;;;;;;5056641;28;20036;-43
2022/08/01 10:44:30;;;;;;;4.32;2.47;;;23.10;96.40;;;;;;5055233;28;20036;-47
2022/08/01 10:47:23;;;;;;;5.65;2.35;;;23.40;96.50;;;;;;5069091;28;20051;-49
2022/08/01 10:50:02;;;;;;;5.43;2.58;;;23.50;94.50;;;;;;5069251;28;20082;-45
2022/08/01 10:52:27;;;;;;;2.78;2.10;;;23.50;95.30;;;;;;5059818;28;20021;-51
2022/08/01 10:55:10;;;;;;;4.93;2.40;;;23.60;95.20;;;;;;5072895;28;20025;-47
2022/08/01 10:57:47;;;;;;;4.20;2.25;;;23.60;94.70;;;;;;5069996;28;20036;-46
2022/08/01 11:00:21;;;;;;;6.38;2.78;;;23.30;95.20;;;;;;5071407;28;20126;-53
2022/08/01 11:03:00;;;;;;;4.18;2.22;;;22.80;94.50;;;;;;5066054;28;20044;-45
2022/08/01 11:05:30;;;;;;;4.30;2.05;;;22.80;95.30;;;;;;5070574;28;20032;-48
2022/08/01 11:08:00;;;;;;;4.25;2.17;;;22.80;95.70;;;;;;5070615;28;20017;-52
2022/08/01 11:10:37;;;;;;;2.45;1.90;;;22.70;96.10;;;;;;5071255;28;20024;-53
2022/08/01 11:13:07;;;;;;;5.82;2.13;;;22.80;96.20;;;;;;5070310;28;20086;-48
2022/08/01 11:15:33;;;;;;;4.13;2.10;;;22.70;96.70;;;;;;5068858;28;20036;-54
2022/08/01 11:18:01;;;;;;;3.85;2.30;;;22.70;96.50;;;;;;5068551;28;20035;-52
2022/08/01 11:20:35;;;;;;;5.43;2.15;;;22.60;96.50;;;;;;5069030;28;20024;-46
2022/08/01 11:23:01;;;;;;;3.50;1.83;;;22.60;96.60;;;;;;5070895;28;20389;-48
2022/08/01 11:25:37;;;;;;;3.83;2.17;;;22.60;96.70;;;;;;5070485;28;20364;-47
2022/08/01 11:28:16;;;;;;;3.20;1.92;;;22.60;96.90;;;;;;5065915;28;20055;-44
2022/08/01 11:30:46;;;;;;;4.40;2.15;;;22.80;96.90;;;;;;5062205;28;20089;-47
2022/08/01 11:33:13;;;;;;;3.17;1.83;;;22.80;96.20;;;;;;5067974;28;20048;-47
2022/08/01 11:36:11;;;;;;;4.25;2.00;;;22.90;96.30;;;;;;5066580;28;20441;-51
2022/08/01 11:38:43;;;;;;;4.85;2.17;;;23.10;96.10;;;;;;5063822;28;20433;-43
2022/08/01 11:41:16;;;;;;;6.32;2.60;;;23.20;95.20;;;;;;5061712;28;20033;-44
2022/08/01 11:44:11;;;;;;;5.28;2.00;;;23.20;95.70;;;;;;5067574;28;20479;-44
2022/08/01 11:47:03;;;;;;;5.07;2.55;;;23.20;95.90;;;;;;5065136;28;20033;-46
2022/08/01 11:49:54;;;;;;;4.93;2.45;;;23.50;95.50;;;;;;5083716;28;20115;-43
2022/08/01 11:52:32;;;;;;;4.43;2.47;;;23.40;95.00;;;;;;5066616;28;20028;-49
2022/08/01 11:55:03;;;;;;;3.92;2.28;;;23.60;94.60;;;;;;5067785;28;20089;-46
2022/08/01 11:57:36;;;;;;;3.88;2.13;;;23.60;95.00;;;;;;5070292;28;20107;-53
2022/08/01 12:00:16;;;;;;;3.58;1.92;;;23.80;95.30;;;;;;5061826;28;20021;-52
2022/08/01 12:02:43;;;;;;;3.08;2.13;;;24.10;94.50;;;;;;5066727;28;20422;-51
2022/08/01 12:05:14;;;;;;;6.70;2.13;;;24.30;94.90;;;;;;5067366;28;20033;-55
2022/08/01 12:07:41;;;;;;;4.07;1.80;;;24.50;94.10;;;;;;5062549;28;20471;-49
2022/08/01 12:10:10;;;;;;;4.40;1.92;;;24.70;93.40;;;;;;5068459;28;20020;-50
2022/08/01 12:12:41;;;;;;;4.78;2.30;;;24.90;92.80;;;;;;5069666;28;20074;-46
2022/08/01 12:15:09;;;;;;;3.58;2.20;;;25.00;92.50;;;;;;5062052;28;20020;-45
2022/08/01 12:17:40;;;;;;;2.70;1.80;;;25.10;92.90;;;;;;5067759;28;20138;-46
2022/08/01 12:20:09;;;;;;;3.38;1.85;;;25.10;92.40;;;;;;5069374;28;20028;-50
2022/08/01 12:22:36;;;;;;;4.40;2.42;;;25.30;92.20;;;;;;5069405;28;20036;-50
2022/08/01 12:25:07;;;;;;;2.97;1.90;;;25.30;92.00;;;;;;5057006;28;20547;-45
2022/08/01 12:27:33;;;;;;;4.03;2.05;;;25.20;92.40;;;;;;5059882;28;20052;-49
2022/08/01 12:29:59;;;;;;;3.20;2.05;;;25.20;92.70;;;;;;5066102;28;20033;-43
2022/08/01 12:32:36;;;;;;;4.63;2.25;;;25.20;92.30;;;;;;5055812;28;20036;-48
2022/08/01 12:35:22;;;;;;;3.72;2.30;;;25.10;91.70;;;;;;5056203;28;20032;-54
2022/08/01 12:38:15;;;;;;;3.90;2.60;;;25.10;92.70;;;;;;5067660;28;20029;-48
2022/08/01 12:40:43;;;;;;;4.63;2.20;;;25.00;92.40;;;;;;5069072;28;20032;-52
2022/08/01 12:43:15;;;;;;;3.53;2.23;;;25.00;92.70;;;;;;5068070;28;20082;-46
2022/08/01 12:45:43;;;;;;;4.28;2.10;;;24.80;92.90;;;;;;5067987;28;20036;-47
2022/08/01 12:48:11;;;;;;;4.47;2.33;;;24.80;93.70;;;;;;5062160;28;20021;-46
2022/08/01 12:50:38;;;;;;;4.20;2.13;;;24.50;93.60;;;;;;5064640;28;20085;-51
2022/08/01 12:53:05;;;;;;;4.55;2.42;;;24.40;94.20;;;;;;5066482;28;20048;-53
2022/08/01 12:55:31;;;;;;;4.63;2.38;;;24.20;94.10;;;;;;5068164;28;20020;-52